sensor_id;sensor_type;location;lat;lon;timestamp;P1;durP1;ratioP1;P2;durP2;ratioP2
1753;SDS011;58380;48.312;9.246;2022-11-28T07:08:51;31.08;;;17.65;;
1753;SDS011;58380;48.312;9.246;2022-11-28T07:11:28;31.17;;;16.10;;
1753;SDS011;58380;48.312;9.246;2022-11-28T07:13:56;35.35;;;18.20;;
1753;SDS011;58380;48.312;9.246;2022-11-28T07:16:27;30.85;;;16.83;;
1753;SDS011;58380;48.312;9.246;2022-11-28T07:18:56;31.73;;;17.00;;
1753;SDS011;58380;48.312;9.246;2022-11-28T07:21:23;25.08;;;14.50;;
1753;SDS011;58380;48.312;9.246;2022-11-28T07:23:49;28.20;;;15.13;;
1753;SDS011;58380;48.312;9.246;2022-11-28T07:26:16;25.48;;;13.82;;
1753;SDS011;58380;48.312;9.246;2022-11-28T07:28:44;23.98;;;13.30;;
1753;SDS011;58380;48.312;9.246;2022-11-28T07:31:15;26.77;;;14.48;;
1753;SDS011;58380;48.312;9.246;2022-11-28T07:33:44;21.92;;;12.40;;
1753;SDS011;58380;48.312;9.246;2022-11-28T07:36:13;35.35;;;15.55;;
1753;SDS011;58380;48.312;9.246;2022-11-28T07:38:49;29.85;;;13.50;;
1753;SDS011;58380;48.312;9.246;2022-11-28T07:41:18;27.38;;;13.63;;
1753;SDS011;58380;48.312;9.246;2022-11-28T07:46:12;27.25;;;12.63;;
1753;SDS011;58380;48.312;9.246;2022-11-28T07:48:40;24.10;;;12.95;;
1753;SDS011;58380;48.312;9.246;2022-11-28T07:51:07;31.95;;;15.25;;
1753;SDS011;58380;48.312;9.246;2022-11-28T07:53:36;22.25;;;11.85;;
1753;SDS011;58380;48.312;9.246;2022-11-28T07:56:04;22.45;;;12.20;;
1753;SDS011;58380;48.312;9.246;2022-11-28T07:58:33;30.20;;;14.70;;
1753;SDS011;58380;48.312;9.246;2022-11-28T08:01:07;24.65;;;12.80;;
1753;SDS011;58380;48.312;9.246;2022-11-28T08:03:41;21.13;;;12.02;;
1753;SDS011;58380;48.312;9.246;2022-11-28T08:06:11;25.20;;;13.40;;
1753;SDS011;58380;48.312;9.246;2022-11-28T08:08:39;27.65;;;14.25;;
1753;SDS011;58380;48.312;9.246;2022-11-28T08:11:05;26.58;;;13.82;;
1753;SDS011;58380;48.312;9.246;2022-11-28T08:13:33;20.63;;;11.85;;
1753;SDS011;58380;48.312;9.246;2022-11-28T08:16:03;22.02;;;11.73;;
1753;SDS011;58380;48.312;9.246;2022-11-28T08:18:32;21.20;;;11.70;;
1753;SDS011;58380;48.312;9.246;2022-11-28T08:21:05;19.98;;;11.40;;
1753;SDS011;58380;48.312;9.246;2022-11-28T08:23:34;19.58;;;11.38;;
1753;SDS011;58380;48.312;9.246;2022-11-28T08:26:01;19.05;;;10.98;;
1753;SDS011;58380;48.312;9.246;2022-11-28T08:28:29;20.00;;;10.73;;
1753;SDS011;58380;48.312;9.246;2022-11-28T08:33:21;20.17;;;10.65;;
1753;SDS011;58380;48.312;9.246;2022-11-28T08:35:48;18.60;;;9.90;;
1753;SDS011;58380;48.312;9.246;2022-11-28T08:38:15;18.17;;;11.38;;
1753;SDS011;58380;48.312;9.246;2022-11-28T08:40:40;19.93;;;10.77;;
1753;SDS011;58380;48.312;9.246;2022-11-28T08:43:06;21.37;;;10.80;;
1753;SDS011;58380;48.312;9.246;2022-11-28T08:45:33;19.45;;;10.90;;
1753;SDS011;58380;48.312;9.246;2022-11-28T08:48:01;20.77;;;11.20;;
1753;SDS011;58380;48.312;9.246;2022-11-28T08:52:53;20.92;;;10.48;;
1753;SDS011;58380;48.312;9.246;2022-11-28T08:55:18;17.63;;;10.07;;
1753;SDS011;58380;48.312;9.246;2022-11-28T08:57:44;17.60;;;10.47;;
1753;SDS011;58380;48.312;9.246;2022-11-28T09:00:09;18.13;;;10.13;;
1753;SDS011;58380;48.312;9.246;2022-11-28T09:05:01;21.88;;;10.15;;
1753;SDS011;58380;48.312;9.246;2022-11-28T09:07:27;16.73;;;9.50;;
1753;SDS011;58380;48.312;9.246;2022-11-28T09:09:52;18.97;;;10.83;;
1753;SDS011;58380;48.312;9.246;2022-11-28T09:12:18;23.07;;;11.40;;
1753;SDS011;58380;48.312;9.246;2022-11-28T09:14:43;27.80;;;13.37;;
1753;SDS011;58380;48.312;9.246;2022-11-28T09:17:08;22.83;;;11.80;;
1753;SDS011;58380;48.312;9.246;2022-11-28T09:19:34;22.08;;;11.30;;
1753;SDS011;58380;48.312;9.246;2022-11-28T09:22:00;22.63;;;12.40;;
1753;SDS011;58380;48.312;9.246;2022-11-28T09:24:25;21.17;;;10.65;;
1753;SDS011;58380;48.312;9.246;2022-11-28T09:26:51;18.07;;;10.93;;
1753;SDS011;58380;48.312;9.246;2022-11-28T09:29:16;21.13;;;11.43;;
1753;SDS011;58380;48.312;9.246;2022-11-28T09:31:42;20.77;;;12.70;;
1753;SDS011;58380;48.312;9.246;2022-11-28T09:34:07;21.63;;;12.83;;
1753;SDS011;58380;48.312;9.246;2022-11-28T09:36:33;25.02;;;12.75;;
1753;SDS011;58380;48.312;9.246;2022-11-28T09:38:59;20.03;;;11.97;;
1753;SDS011;58380;48.312;9.246;2022-11-28T09:44:25;18.90;;;10.20;;
1753;SDS011;58380;48.312;9.246;2022-11-28T09:47:03;20.30;;;10.90;;
1753;SDS011;58380;48.312;9.246;2022-11-28T09:49:43;21.73;;;11.68;;
1753;SDS011;58380;48.312;9.246;2022-11-28T09:55:00;22.98;;;11.27;;
1753;SDS011;58380;48.312;9.246;2022-11-28T09:57:42;18.08;;;9.88;;
1753;SDS011;58380;48.312;9.246;2022-11-28T10:00:22;14.50;;;8.60;;
1753;SDS011;58380;48.312;9.246;2022-11-28T10:03:19;18.73;;;9.38;;
1753;SDS011;58380;48.312;9.246;2022-11-28T10:06:05;16.33;;;8.43;;
1753;SDS011;58380;48.312;9.246;2022-11-28T10:11:59;16.13;;;8.48;;
1753;SDS011;58380;48.312;9.246;2022-11-28T10:17:36;14.43;;;7.20;;
1753;SDS011;58380;48.312;9.246;2022-11-28T10:20:19;13.85;;;7.75;;
1753;SDS011;58380;48.312;9.246;2022-11-28T10:22:56;14.00;;;7.63;;
1753;SDS011;58380;48.312;9.246;2022-11-28T10:25:34;13.82;;;8.02;;
1753;SDS011;58380;48.312;9.246;2022-11-28T10:28:05;16.17;;;7.80;;
1753;SDS011;58380;48.312;9.246;2022-11-28T10:30:39;13.77;;;7.88;;
1753;SDS011;58380;48.312;9.246;2022-11-28T10:35:54;16.30;;;7.90;;
1753;SDS011;58380;48.312;9.246;2022-11-28T10:38:25;14.30;;;8.25;;
1753;SDS011;58380;48.312;9.246;2022-11-28T10:44:04;14.88;;;8.32;;
1753;SDS011;58380;48.312;9.246;2022-11-28T10:49:37;14.80;;;7.78;;
1753;SDS011;58380;48.312;9.246;2022-11-28T10:52:22;17.42;;;7.72;;
1753;SDS011;58380;48.312;9.246;2022-11-28T10:58:01;13.67;;;7.67;;
1753;SDS011;58380;48.312;9.246;2022-11-28T11:00:34;15.18;;;7.63;;
1753;SDS011;58380;48.312;9.246;2022-11-28T11:03:02;13.55;;;7.15;;
1753;SDS011;58380;48.312;9.246;2022-11-28T11:05:33;14.23;;;6.45;;
1753;SDS011;58380;48.312;9.246;2022-11-28T11:08:20;14.15;;;7.47;;
1753;SDS011;58380;48.312;9.246;2022-11-28T11:13:34;11.75;;;6.88;;
1753;SDS011;58380;48.312;9.246;2022-11-28T11:16:21;14.23;;;7.00;;
1753;SDS011;58380;48.312;9.246;2022-11-28T11:21:20;14.43;;;7.40;;
1753;SDS011;58380;48.312;9.246;2022-11-28T11:24:09;13.15;;;6.82;;
1753;SDS011;58380;48.312;9.246;2022-11-28T11:26:43;13.10;;;6.38;;
1753;SDS011;58380;48.312;9.246;2022-11-28T11:29:23;11.15;;;6.72;;
1753;SDS011;58380;48.312;9.246;2022-11-28T11:31:56;14.65;;;6.80;;
1753;SDS011;58380;48.312;9.246;2022-11-28T11:34:27;11.27;;;6.63;;
1753;SDS011;58380;48.312;9.246;2022-11-28T11:40:16;36.60;;;16.70;;
1753;SDS011;58380;48.312;9.246;2022-11-28T11:42:54;28.30;;;9.98;;
1753;SDS011;58380;48.312;9.246;2022-11-28T11:45:28;16.88;;;8.82;;
1753;SDS011;58380;48.312;9.246;2022-11-28T11:47:55;13.23;;;7.15;;
1753;SDS011;58380;48.312;9.246;2022-11-28T11:50:22;16.17;;;7.95;;
1753;SDS011;58380;48.312;9.246;2022-11-28T11:52:59;19.70;;;8.13;;
1753;SDS011;58380;48.312;9.246;2022-11-28T11:55:30;28.98;;;12.98;;
1753;SDS011;58380;48.312;9.246;2022-11-28T11:58:03;22.25;;;8.85;;
1753;SDS011;58380;48.312;9.246;2022-11-28T12:00:39;15.30;;;6.10;;
1753;SDS011;58380;48.312;9.246;2022-11-28T12:05:55;8.52;;;4.80;;
1753;SDS011;58380;48.312;9.246;2022-11-28T12:08:34;7.07;;;3.83;;
1753;SDS011;58380;48.312;9.246;2022-11-28T12:11:20;10.63;;;5.10;;
1753;SDS011;58380;48.312;9.246;2022-11-28T12:13:53;8.45;;;3.92;;
1753;SDS011;58380;48.312;9.246;2022-11-28T12:19:16;8.90;;;4.20;;
1753;SDS011;58380;48.312;9.246;2022-11-28T12:25:46;13.75;;;4.45;;
1753;SDS011;58380;48.312;9.246;2022-11-28T12:37:13;12.80;;;6.80;;
1753;SDS011;58380;48.312;9.246;2022-11-28T12:45:45;14.10;;;6.23;;
1753;SDS011;58380;48.312;9.246;2022-11-28T12:54:09;8.38;;;4.95;;
1753;SDS011;58380;48.312;9.246;2022-11-28T12:56:58;11.95;;;5.65;;
1753;SDS011;58380;48.312;9.246;2022-11-28T12:59:57;15.05;;;5.93;;
1753;SDS011;58380;48.312;9.246;2022-11-28T13:05:31;10.00;;;5.13;;
1753;SDS011;58380;48.312;9.246;2022-11-28T13:08:28;7.43;;;4.95;;
1753;SDS011;58380;48.312;9.246;2022-11-28T13:11:14;10.45;;;5.15;;
1753;SDS011;58380;48.312;9.246;2022-11-28T13:16:46;16.55;;;6.95;;
1753;SDS011;58380;48.312;9.246;2022-11-28T13:22:12;10.65;;;5.68;;
1753;SDS011;58380;48.312;9.246;2022-11-28T13:27:36;9.50;;;5.40;;
1753;SDS011;58380;48.312;9.246;2022-11-28T13:35:40;9.80;;;5.90;;
1753;SDS011;58380;48.312;9.246;2022-11-28T13:40:58;18.20;;;9.73;;
1753;SDS011;58380;48.312;9.246;2022-11-28T13:43:52;17.75;;;9.23;;
1753;SDS011;58380;48.312;9.246;2022-11-28T13:46:26;14.45;;;8.65;;
1753;SDS011;58380;48.312;9.246;2022-11-28T13:49:27;15.88;;;7.82;;
1753;SDS011;58380;48.312;9.246;2022-11-28T14:00:04;13.18;;;6.05;;
1753;SDS011;58380;48.312;9.246;2022-11-28T14:02:48;9.18;;;5.45;;
1753;SDS011;58380;48.312;9.246;2022-11-28T14:05:32;15.20;;;6.25;;
1753;SDS011;58380;48.312;9.246;2022-11-28T14:08:03;10.10;;;5.20;;
1753;SDS011;58380;48.312;9.246;2022-11-28T14:11:16;14.30;;;4.80;;
1753;SDS011;58380;48.312;9.246;2022-11-28T14:13:36;7.63;;;3.90;;
1753;SDS011;58380;48.312;9.246;2022-11-28T14:19:29;10.05;;;4.68;;
1753;SDS011;58380;48.312;9.246;2022-11-28T14:22:25;18.92;;;9.07;;
1753;SDS011;58380;48.312;9.246;2022-11-28T14:25:26;23.48;;;9.93;;
1753;SDS011;58380;48.312;9.246;2022-11-28T14:27:57;15.27;;;7.72;;
1753;SDS011;58380;48.312;9.246;2022-11-28T14:33:00;14.07;;;6.22;;
1753;SDS011;58380;48.312;9.246;2022-11-28T14:43:29;8.60;;;4.25;;
1753;SDS011;58380;48.312;9.246;2022-11-28T14:52:03;49.80;;;24.63;;
1753;SDS011;58380;48.312;9.246;2022-11-28T14:56:46;19.58;;;10.40;;
1753;SDS011;58380;48.312;9.246;2022-11-28T14:59:13;15.45;;;7.82;;
1753;SDS011;58380;48.312;9.246;2022-11-28T15:04:41;15.95;;;8.70;;
1753;SDS011;58380;48.312;9.246;2022-11-28T15:14:39;14.43;;;8.90;;
1753;SDS011;58380;48.312;9.246;2022-11-28T15:19:44;16.83;;;9.05;;
1753;SDS011;58380;48.312;9.246;2022-11-28T15:22:29;14.13;;;7.57;;
1753;SDS011;58380;48.312;9.246;2022-11-28T15:25:16;14.02;;;6.63;;
1753;SDS011;58380;48.312;9.246;2022-11-28T15:27:51;10.13;;;6.20;;
1753;SDS011;58380;48.312;9.246;2022-11-28T15:30:20;11.35;;;5.85;;
1753;SDS011;58380;48.312;9.246;2022-11-28T15:32:50;13.40;;;6.22;;
1753;SDS011;58380;48.312;9.246;2022-11-28T15:35:22;12.70;;;6.32;;
1753;SDS011;58380;48.312;9.246;2022-11-28T15:37:48;30.95;;;13.68;;
1753;SDS011;58380;48.312;9.246;2022-11-28T15:40:20;20.38;;;9.98;;
1753;SDS011;58380;48.312;9.246;2022-11-28T15:42:51;23.98;;;10.02;;
1753;SDS011;58380;48.312;9.246;2022-11-28T15:45:22;23.48;;;10.95;;
1753;SDS011;58380;48.312;9.246;2022-11-28T15:47:52;15.13;;;6.60;;
1753;SDS011;58380;48.312;9.246;2022-11-28T15:50:23;10.23;;;5.47;;
1753;SDS011;58380;48.312;9.246;2022-11-28T15:52:54;12.95;;;7.00;;
1753;SDS011;58380;48.312;9.246;2022-11-28T15:55:26;24.02;;;10.70;;
1753;SDS011;58380;48.312;9.246;2022-11-28T15:58:08;14.27;;;6.13;;
1753;SDS011;58380;48.312;9.246;2022-11-28T16:00:48;20.88;;;10.02;;
1753;SDS011;58380;48.312;9.246;2022-11-28T16:03:21;20.95;;;11.23;;
1753;SDS011;58380;48.312;9.246;2022-11-28T16:05:52;19.20;;;10.48;;
1753;SDS011;58380;48.312;9.246;2022-11-28T16:08:28;19.67;;;10.00;;
1753;SDS011;58380;48.312;9.246;2022-11-28T16:11:00;11.18;;;6.55;;
1753;SDS011;58380;48.312;9.246;2022-11-28T16:13:30;18.05;;;8.20;;
1753;SDS011;58380;48.312;9.246;2022-11-28T16:15:57;13.15;;;6.68;;
1753;SDS011;58380;48.312;9.246;2022-11-28T16:18:27;15.82;;;7.97;;
1753;SDS011;58380;48.312;9.246;2022-11-28T16:20:55;14.00;;;6.82;;
1753;SDS011;58380;48.312;9.246;2022-11-28T16:23:26;15.55;;;8.13;;
1753;SDS011;58380;48.312;9.246;2022-11-28T16:26:02;11.77;;;6.22;;
1753;SDS011;58380;48.312;9.246;2022-11-28T16:31:31;14.45;;;7.45;;
1753;SDS011;58380;48.312;9.246;2022-11-28T16:33:58;11.57;;;6.25;;
1753;SDS011;58380;48.312;9.246;2022-11-28T16:36:29;12.27;;;8.30;;
1753;SDS011;58380;48.312;9.246;2022-11-28T16:41:39;15.52;;;8.02;;
1753;SDS011;58380;48.312;9.246;2022-11-28T16:44:16;17.60;;;8.65;;
1753;SDS011;58380;48.312;9.246;2022-11-28T16:46:50;18.00;;;8.65;;
1753;SDS011;58380;48.312;9.246;2022-11-28T16:49:37;17.98;;;9.07;;
1753;SDS011;58380;48.312;9.246;2022-11-28T16:55:02;15.20;;;8.95;;
1753;SDS011;58380;48.312;9.246;2022-11-28T16:58:13;17.27;;;6.70;;
1753;SDS011;58380;48.312;9.246;2022-11-28T17:01:18;14.07;;;6.95;;
1753;SDS011;58380;48.312;9.246;2022-11-28T17:03:44;16.17;;;7.10;;
1753;SDS011;58380;48.312;9.246;2022-11-28T17:06:20;11.18;;;6.63;;
1753;SDS011;58380;48.312;9.246;2022-11-28T17:08:49;13.10;;;7.57;;
1753;SDS011;58380;48.312;9.246;2022-11-28T17:11:16;18.17;;;8.65;;
1753;SDS011;58380;48.312;9.246;2022-11-28T17:13:46;14.20;;;8.00;;
1753;SDS011;58380;48.312;9.246;2022-11-28T17:16:15;13.98;;;7.75;;
1753;SDS011;58380;48.312;9.246;2022-11-28T17:18:47;14.13;;;8.18;;
1753;SDS011;58380;48.312;9.246;2022-11-28T17:21:16;13.75;;;7.28;;
1753;SDS011;58380;48.312;9.246;2022-11-28T17:23:56;12.07;;;7.13;;
1753;SDS011;58380;48.312;9.246;2022-11-28T17:26:23;15.45;;;7.15;;
1753;SDS011;58380;48.312;9.246;2022-11-28T17:28:48;15.03;;;8.17;;
1753;SDS011;58380;48.312;9.246;2022-11-28T17:31:14;17.47;;;7.27;;
1753;SDS011;58380;48.312;9.246;2022-11-28T17:33:39;14.13;;;7.45;;
1753;SDS011;58380;48.312;9.246;2022-11-28T17:36:05;11.87;;;7.13;;
1753;SDS011;58380;48.312;9.246;2022-11-28T17:38:31;13.05;;;7.00;;
1753;SDS011;58380;48.312;9.246;2022-11-28T17:40:58;14.05;;;7.57;;
1753;SDS011;58380;48.312;9.246;2022-11-28T17:43:25;15.13;;;7.47;;
1753;SDS011;58380;48.312;9.246;2022-11-28T17:45:51;16.73;;;7.38;;
1753;SDS011;58380;48.312;9.246;2022-11-28T17:48:17;12.40;;;7.23;;
1753;SDS011;58380;48.312;9.246;2022-11-28T17:50:42;15.73;;;7.50;;
1753;SDS011;58380;48.312;9.246;2022-11-28T17:53:12;22.80;;;10.52;;
1753;SDS011;58380;48.312;9.246;2022-11-28T17:55:42;19.80;;;10.70;;
1753;SDS011;58380;48.312;9.246;2022-11-28T17:58:19;22.77;;;9.43;;
1753;SDS011;58380;48.312;9.246;2022-11-28T18:00:47;14.45;;;8.77;;
1753;SDS011;58380;48.312;9.246;2022-11-28T18:03:14;15.43;;;8.35;;
1753;SDS011;58380;48.312;9.246;2022-11-28T18:05:44;13.75;;;8.32;;
1753;SDS011;58380;48.312;9.246;2022-11-28T18:08:13;16.17;;;9.10;;
1753;SDS011;58380;48.312;9.246;2022-11-28T18:10:44;19.95;;;9.10;;
1753;SDS011;58380;48.312;9.246;2022-11-28T18:13:10;21.13;;;10.20;;
1753;SDS011;58380;48.312;9.246;2022-11-28T18:15:36;19.42;;;10.30;;
1753;SDS011;58380;48.312;9.246;2022-11-28T18:18:04;27.60;;;13.95;;
1753;SDS011;58380;48.312;9.246;2022-11-28T18:20:30;14.95;;;7.78;;
1753;SDS011;58380;48.312;9.246;2022-11-28T18:22:57;13.40;;;8.15;;
1753;SDS011;58380;48.312;9.246;2022-11-28T18:25:24;20.08;;;11.15;;
1753;SDS011;58380;48.312;9.246;2022-11-28T18:27:51;20.48;;;10.25;;
1753;SDS011;58380;48.312;9.246;2022-11-28T18:30:17;18.87;;;10.27;;
1753;SDS011;58380;48.312;9.246;2022-11-28T18:32:43;17.38;;;9.00;;
1753;SDS011;58380;48.312;9.246;2022-11-28T18:35:09;15.15;;;8.27;;
1753;SDS011;58380;48.312;9.246;2022-11-28T18:37:36;14.70;;;8.38;;
1753;SDS011;58380;48.312;9.246;2022-11-28T18:40:02;43.17;;;21.95;;
1753;SDS011;58380;48.312;9.246;2022-11-28T18:42:28;47.42;;;24.17;;
1753;SDS011;58380;48.312;9.246;2022-11-28T18:44:54;97.00;;;43.13;;
1753;SDS011;58380;48.312;9.246;2022-11-28T18:47:19;89.77;;;37.30;;
1753;SDS011;58380;48.312;9.246;2022-11-28T18:49:45;41.80;;;19.67;;
1753;SDS011;58380;48.312;9.246;2022-11-28T18:52:10;64.83;;;29.93;;
1753;SDS011;58380;48.312;9.246;2022-11-28T18:54:36;56.63;;;27.53;;
1753;SDS011;58380;48.312;9.246;2022-11-28T18:59:30;51.42;;;23.75;;
1753;SDS011;58380;48.312;9.246;2022-11-28T19:01:56;40.83;;;21.00;;
1753;SDS011;58380;48.312;9.246;2022-11-28T19:04:21;50.33;;;28.57;;
1753;SDS011;58380;48.312;9.246;2022-11-28T19:06:47;33.27;;;18.30;;
1753;SDS011;58380;48.312;9.246;2022-11-28T19:09:13;33.60;;;20.77;;
1753;SDS011;58380;48.312;9.246;2022-11-28T19:11:41;22.23;;;12.75;;
1753;SDS011;58380;48.312;9.246;2022-11-28T19:14:13;24.35;;;14.07;;
1753;SDS011;58380;48.312;9.246;2022-11-28T19:16:40;18.05;;;10.93;;
1753;SDS011;58380;48.312;9.246;2022-11-28T19:19:07;24.92;;;13.18;;
1753;SDS011;58380;48.312;9.246;2022-11-28T19:21:35;16.85;;;10.98;;
1753;SDS011;58380;48.312;9.246;2022-11-28T19:24:02;19.35;;;12.10;;
1753;SDS011;58380;48.312;9.246;2022-11-28T19:26:28;22.13;;;10.85;;
1753;SDS011;58380;48.312;9.246;2022-11-28T19:28:55;30.08;;;14.07;;
1753;SDS011;58380;48.312;9.246;2022-11-28T19:31:25;34.67;;;16.13;;
1753;SDS011;58380;48.312;9.246;2022-11-28T19:33:54;25.92;;;12.75;;
1753;SDS011;58380;48.312;9.246;2022-11-28T19:36:25;18.95;;;10.75;;
1753;SDS011;58380;48.312;9.246;2022-11-28T19:38:52;20.25;;;10.90;;
1753;SDS011;58380;48.312;9.246;2022-11-28T19:41:19;16.37;;;10.20;;
1753;SDS011;58380;48.312;9.246;2022-11-28T19:43:46;19.67;;;10.25;;
1753;SDS011;58380;48.312;9.246;2022-11-28T19:46:13;18.38;;;10.20;;
1753;SDS011;58380;48.312;9.246;2022-11-28T19:48:39;19.40;;;10.70;;
1753;SDS011;58380;48.312;9.246;2022-11-28T19:51:07;18.80;;;10.30;;
1753;SDS011;58380;48.312;9.246;2022-11-28T19:53:35;18.70;;;10.45;;
1753;SDS011;58380;48.312;9.246;2022-11-28T19:56:06;19.48;;;11.25;;
1753;SDS011;58380;48.312;9.246;2022-11-28T19:58:36;22.42;;;11.68;;
1753;SDS011;58380;48.312;9.246;2022-11-28T20:01:04;15.93;;;9.98;;
1753;SDS011;58380;48.312;9.246;2022-11-28T20:03:31;20.17;;;11.05;;
1753;SDS011;58380;48.312;9.246;2022-11-28T20:05:58;20.27;;;10.85;;
1753;SDS011;58380;48.312;9.246;2022-11-28T20:08:24;19.77;;;11.18;;
1753;SDS011;58380;48.312;9.246;2022-11-28T20:10:49;18.30;;;10.20;;
1753;SDS011;58380;48.312;9.246;2022-11-28T20:13:15;16.57;;;10.13;;
1753;SDS011;58380;48.312;9.246;2022-11-28T20:15:40;22.23;;;10.93;;
1753;SDS011;58380;48.312;9.246;2022-11-28T20:18:06;22.77;;;11.90;;
1753;SDS011;58380;48.312;9.246;2022-11-28T20:20:32;21.92;;;10.80;;
1753;SDS011;58380;48.312;9.246;2022-11-28T20:22:59;22.15;;;10.98;;
1753;SDS011;58380;48.312;9.246;2022-11-28T20:25:25;16.27;;;10.32;;
1753;SDS011;58380;48.312;9.246;2022-11-28T20:27:51;20.45;;;10.23;;
1753;SDS011;58380;48.312;9.246;2022-11-28T20:30:17;16.77;;;8.82;;
1753;SDS011;58380;48.312;9.246;2022-11-28T20:32:43;18.98;;;10.40;;
1753;SDS011;58380;48.312;9.246;2022-11-28T20:35:08;21.35;;;9.63;;
1753;SDS011;58380;48.312;9.246;2022-11-28T20:37:34;21.20;;;10.70;;
1753;SDS011;58380;48.312;9.246;2022-11-28T20:40:02;18.02;;;10.23;;
1753;SDS011;58380;48.312;9.246;2022-11-28T20:42:27;16.88;;;10.65;;
1753;SDS011;58380;48.312;9.246;2022-11-28T20:44:53;19.43;;;11.23;;
1753;SDS011;58380;48.312;9.246;2022-11-28T20:47:18;20.07;;;12.87;;
1753;SDS011;58380;48.312;9.246;2022-11-28T20:49:44;27.13;;;18.27;;
1753;SDS011;58380;48.312;9.246;2022-11-28T20:52:09;28.30;;;19.97;;
1753;SDS011;58380;48.312;9.246;2022-11-28T20:54:35;24.53;;;14.80;;
1753;SDS011;58380;48.312;9.246;2022-11-28T20:57:00;23.00;;;13.27;;
1753;SDS011;58380;48.312;9.246;2022-11-28T20:59:25;23.80;;;12.27;;
1753;SDS011;58380;48.312;9.246;2022-11-28T21:01:51;20.40;;;11.33;;
1753;SDS011;58380;48.312;9.246;2022-11-28T21:04:16;20.27;;;11.83;;
1753;SDS011;58380;48.312;9.246;2022-11-28T21:09:11;21.73;;;11.73;;
1753;SDS011;58380;48.312;9.246;2022-11-28T21:11:37;17.30;;;10.55;;
1753;SDS011;58380;48.312;9.246;2022-11-28T21:14:03;21.45;;;12.02;;
1753;SDS011;58380;48.312;9.246;2022-11-28T21:16:30;28.05;;;11.70;;
1753;SDS011;58380;48.312;9.246;2022-11-28T21:18:58;19.95;;;10.98;;
1753;SDS011;58380;48.312;9.246;2022-11-28T21:21:29;24.75;;;12.13;;
1753;SDS011;58380;48.312;9.246;2022-11-28T21:23:59;23.67;;;11.63;;
1753;SDS011;58380;48.312;9.246;2022-11-28T21:26:29;21.42;;;10.55;;
1753;SDS011;58380;48.312;9.246;2022-11-28T21:28:56;19.00;;;10.00;;
1753;SDS011;58380;48.312;9.246;2022-11-28T21:31:27;18.73;;;10.02;;
1753;SDS011;58380;48.312;9.246;2022-11-28T21:33:56;16.30;;;10.02;;
1753;SDS011;58380;48.312;9.246;2022-11-28T21:36:23;16.85;;;9.90;;
1753;SDS011;58380;48.312;9.246;2022-11-28T21:38:52;19.13;;;10.73;;
1753;SDS011;58380;48.312;9.246;2022-11-28T21:41:20;20.67;;;11.63;;
1753;SDS011;58380;48.312;9.246;2022-11-28T21:43:47;21.23;;;12.40;;
1753;SDS011;58380;48.312;9.246;2022-11-28T21:46:13;22.98;;;11.77;;
1753;SDS011;58380;48.312;9.246;2022-11-28T21:48:39;21.02;;;11.02;;
1753;SDS011;58380;48.312;9.246;2022-11-28T21:51:06;25.02;;;11.82;;
1753;SDS011;58380;48.312;9.246;2022-11-28T21:53:39;18.30;;;10.65;;
1753;SDS011;58380;48.312;9.246;2022-11-28T21:56:05;21.83;;;12.07;;
1753;SDS011;58380;48.312;9.246;2022-11-28T21:58:30;24.25;;;12.35;;
1753;SDS011;58380;48.312;9.246;2022-11-28T22:00:57;40.30;;;19.65;;
1753;SDS011;58380;48.312;9.246;2022-11-28T22:03:26;26.73;;;14.38;;
1753;SDS011;58380;48.312;9.246;2022-11-28T22:06:00;22.88;;;13.32;;
1753;SDS011;58380;48.312;9.246;2022-11-28T22:08:48;21.75;;;11.45;;
1753;SDS011;58380;48.312;9.246;2022-11-28T22:11:15;22.25;;;12.02;;
1753;SDS011;58380;48.312;9.246;2022-11-28T22:13:42;24.33;;;12.63;;
1753;SDS011;58380;48.312;9.246;2022-11-28T22:16:10;19.02;;;11.57;;
1753;SDS011;58380;48.312;9.246;2022-11-28T22:18:55;24.10;;;12.35;;
1753;SDS011;58380;48.312;9.246;2022-11-28T22:21:23;26.48;;;13.52;;
1753;SDS011;58380;48.312;9.246;2022-11-28T22:23:49;27.27;;;13.05;;
1753;SDS011;58380;48.312;9.246;2022-11-28T22:26:15;23.67;;;12.20;;
1753;SDS011;58380;48.312;9.246;2022-11-28T22:33:40;24.80;;;13.00;;
1753;SDS011;58380;48.312;9.246;2022-11-28T22:36:08;22.85;;;12.93;;
1753;SDS011;58380;48.312;9.246;2022-11-28T22:38:39;20.73;;;12.25;;
1753;SDS011;58380;48.312;9.246;2022-11-28T22:41:07;20.25;;;11.82;;
1753;SDS011;58380;48.312;9.246;2022-11-28T22:43:33;26.77;;;13.15;;
1753;SDS011;58380;48.312;9.246;2022-11-28T22:46:00;26.10;;;13.15;;
1753;SDS011;58380;48.312;9.246;2022-11-28T22:48:27;21.50;;;11.17;;
1753;SDS011;58380;48.312;9.246;2022-11-28T22:50:54;23.40;;;11.23;;
1753;SDS011;58380;48.312;9.246;2022-11-28T22:53:19;20.50;;;12.00;;
1753;SDS011;58380;48.312;9.246;2022-11-28T22:55:45;17.50;;;11.27;;
1753;SDS011;58380;48.312;9.246;2022-11-28T22:58:10;20.30;;;10.97;;
1753;SDS011;58380;48.312;9.246;2022-11-28T23:00:36;21.00;;;11.98;;
1753;SDS011;58380;48.312;9.246;2022-11-28T23:03:01;22.47;;;12.10;;
1753;SDS011;58380;48.312;9.246;2022-11-28T23:05:27;18.90;;;11.88;;
1753;SDS011;58380;48.312;9.246;2022-11-28T23:07:52;23.53;;;13.47;;
1753;SDS011;58380;48.312;9.246;2022-11-28T23:12:45;23.10;;;10.70;;
1753;SDS011;58380;48.312;9.246;2022-11-28T23:15:10;20.17;;;11.67;;
1753;SDS011;58380;48.312;9.246;2022-11-28T23:17:36;20.00;;;11.70;;
1753;SDS011;58380;48.312;9.246;2022-11-28T23:20:01;19.90;;;11.17;;
1753;SDS011;58380;48.312;9.246;2022-11-28T23:22:27;20.80;;;10.95;;
1753;SDS011;58380;48.312;9.246;2022-11-28T23:24:53;21.38;;;11.52;;
1753;SDS011;58380;48.312;9.246;2022-11-28T23:27:18;23.17;;;12.13;;
1753;SDS011;58380;48.312;9.246;2022-11-28T23:29:44;23.50;;;11.07;;
1753;SDS011;58380;48.312;9.246;2022-11-28T23:32:09;21.00;;;12.13;;
1753;SDS011;58380;48.312;9.246;2022-11-28T23:34:34;22.30;;;12.60;;
1753;SDS011;58380;48.312;9.246;2022-11-28T23:37:00;19.93;;;11.90;;
1753;SDS011;58380;48.312;9.246;2022-11-28T23:39:25;20.57;;;11.27;;
1753;SDS011;58380;48.312;9.246;2022-11-28T23:41:51;20.45;;;11.98;;
1753;SDS011;58380;48.312;9.246;2022-11-28T23:44:17;20.02;;;11.57;;
1753;SDS011;58380;48.312;9.246;2022-11-28T23:46:44;17.75;;;11.23;;
1753;SDS011;58380;48.312;9.246;2022-11-28T23:49:10;18.25;;;10.52;;
1753;SDS011;58380;48.312;9.246;2022-11-28T23:51:37;19.25;;;11.40;;
1753;SDS011;58380;48.312;9.246;2022-11-28T23:54:04;16.80;;;9.98;;
1753;SDS011;58380;48.312;9.246;2022-11-28T23:56:31;17.45;;;10.48;;
1753;SDS011;58380;48.312;9.246;2022-11-28T23:58:59;17.50;;;10.48;;
